Time,TemperatureF,DewpointF,PressureIn,WindDirection,WindDirectionDegrees,WindSpeedMPH,WindSpeedGustMPH,Humidity,HourlyPrecipIn,Conditions,Clouds,dailyrainin,SoftwareType,DateUTC
2013-03-23 00:10:00,31.0,24.0,30.05,WNW,300,5.0,10.0,76,0.00,,,0.00,weatherlink.com 1.10,2013-03-23 04:10:00,
2013-03-23 00:25:00,30.9,24.0,30.05,WNW,297,1.0,9.0,76,0.00,,,0.00,weatherlink.com 1.10,2013-03-23 04:25:00,
2013-03-23 00:40:00,30.9,25.0,30.05,NNE,16,4.0,5.0,78,0.00,,,0.00,weatherlink.com 1.10,2013-03-23 04:40:00,
2013-03-23 00:55:00,30.8,25.0,30.05,NW,323,3.0,11.0,79,0.00,,,0.00,weatherlink.com 1.10,2013-03-23 04:55:00,
2013-03-23 01:10:00,30.7,24.0,30.05,North,9,3.0,9.0,77,0.00,,,0.00,weatherlink.com 1.10,2013-03-23 05:10:00,
2013-03-23 01:25:00,30.6,24.0,30.05,North,349,6.0,9.0,77,0.00,,,0.00,weatherlink.com 1.10,2013-03-23 05:25:00,
2013-03-23 01:40:00,30.5,23.0,30.05,North,356,6.0,8.0,75,0.00,,,0.00,weatherlink.com 1.10,2013-03-23 05:40:00,
2013-03-23 01:55:00,30.4,23.0,30.05,NNW,338,8.0,8.0,74,0.00,,,0.00,weatherlink.com 1.10,2013-03-23 05:55:00,
2013-03-23 02:10:00,30.2,23.0,30.05,NNW,345,5.0,11.0,75,0.00,,,0.00,weatherlink.com 1.10,2013-03-23 06:10:00,
2013-03-23 02:25:00,30.2,23.0,30.05,NNE,25,10.0,10.0,74,0.00,,,0.00,weatherlink.com 1.10,2013-03-23 06:25:00,
2013-03-23 02:40:00,30.2,23.0,30.05,NNW,347,4.0,11.0,74,0.00,,,0.00,weatherlink.com 1.10,2013-03-23 06:40:00,
2013-03-23 02:55:00,30.1,23.0,30.05,North,359,1.0,6.0,75,0.00,,,0.00,weatherlink.com 1.10,2013-03-23 06:55:00,
2013-03-23 03:10:00,30.3,24.0,30.05,WNW,286,0.0,6.0,76,0.00,,,0.00,weatherlink.com 1.10,2013-03-23 07:10:00,
2013-03-23 03:25:00,30.2,24.0,30.05,North,349,2.0,6.0,76,0.00,,,0.00,weatherlink.com 1.10,2013-03-23 07:25:00,
2013-03-23 03:40:00,30.1,24.0,30.05,NNE,16,2.0,4.0,77,0.00,,,0.00,weatherlink.com 1.10,2013-03-23 07:40:00,
2013-03-23 03:55:00,30.2,24.0,30.04,WNW,287,0.0,5.0,77,0.00,,,0.00,weatherlink.com 1.10,2013-03-23 07:55:00,
2013-03-23 04:10:00,30.2,24.0,30.05,NW,307,0.0,1.0,78,0.00,,,0.00,weatherlink.com 1.10,2013-03-23 08:10:00,
2013-03-23 04:25:00,30.4,24.0,30.04,NW,305,0.0,2.0,78,0.00,,,0.00,weatherlink.com 1.10,2013-03-23 08:25:00,
2013-03-23 04:40:00,30.1,24.0,30.04,WNW,300,1.0,2.0,79,0.00,,,0.00,weatherlink.com 1.10,2013-03-23 08:40:00,
2013-03-23 04:55:00,30.4,25.0,30.04,WNW,283,0.0,2.0,79,0.00,,,0.00,weatherlink.com 1.10,2013-03-23 08:55:00,
2013-03-23 05:10:00,30.1,24.0,30.04,WNW,300,1.0,2.0,79,0.00,,,0.00,weatherlink.com 1.10,2013-03-23 09:10:00,
2013-03-23 05:25:00,30.2,25.0,30.04,WNW,285,0.0,1.0,81,0.00,,,0.00,weatherlink.com 1.10,2013-03-23 09:25:00,
2013-03-23 05:40:00,30.0,25.0,30.04,NW,308,2.0,3.0,80,0.00,,,0.00,weatherlink.com 1.10,2013-03-23 09:40:00,
2013-03-23 05:55:00,29.9,24.0,30.04,WNW,293,1.0,3.0,80,0.00,,,0.00,weatherlink.com 1.10,2013-03-23 09:55:00,
2013-03-23 06:10:00,30.1,25.0,30.05,WNW,291,0.0,2.0,80,0.00,,,0.00,weatherlink.com 1.10,2013-03-23 10:10:00,
2013-03-23 06:25:00,29.9,24.0,30.05,NNW,346,0.0,5.0,80,0.00,,,0.00,weatherlink.com 1.10,2013-03-23 10:25:00,
2013-03-23 06:40:00,29.8,24.0,30.05,NNW,346,1.0,5.0,80,0.00,,,0.00,weatherlink.com 1.10,2013-03-23 10:40:00,
2013-03-23 06:55:00,29.8,24.0,30.06,NNW,344,2.0,5.0,80,0.00,,,0.00,weatherlink.com 1.10,2013-03-23 10:55:00,
2013-03-23 07:10:00,29.8,24.0,30.06,NNE,15,3.0,6.0,80,0.00,,,0.00,weatherlink.com 1.10,2013-03-23 11:10:00,
2013-03-23 07:25:00,29.6,25.0,30.06,NNE,22,7.0,8.0,82,0.00,,,0.00,weatherlink.com 1.10,2013-03-23 11:25:00,
2013-03-23 07:40:00,29.4,25.0,30.07,NE,36,9.0,10.0,82,0.00,,,0.00,weatherlink.com 1.10,2013-03-23 11:40:00,
2013-03-23 07:56:00,28.9,24.0,30.07,NNE,27,9.0,11.0,82,0.00,,,0.00,weatherlink.com 1.10,2013-03-23 11:56:00,
2013-03-23 08:12:00,28.8,24.0,30.08,NNE,29,6.0,9.0,83,0.00,,,0.00,weatherlink.com 1.10,2013-03-23 12:12:00,
2013-03-23 08:26:00,28.9,24.0,30.08,NW,321,4.0,8.0,82,0.00,,,0.00,weatherlink.com 1.10,2013-03-23 12:26:00,
2013-03-23 08:41:00,29.0,24.0,30.09,NNE,29,5.0,8.0,82,0.00,,,0.00,weatherlink.com 1.10,2013-03-23 12:41:00,
2013-03-23 08:56:00,29.0,24.0,30.09,North,355,4.0,9.0,82,0.00,,,0.00,weatherlink.com 1.10,2013-03-23 12:56:00,
2013-03-23 09:26:00,29.4,23.0,30.10,NNW,335,4.0,7.0,78,0.00,,,0.00,weatherlink.com 1.10,2013-03-23 13:26:00,
2013-03-23 10:11:00,29.4,23.0,30.11,North,11,3.0,5.0,78,0.00,,,0.00,weatherlink.com 1.10,2013-03-23 14:11:00,
2013-03-23 10:26:00,29.4,24.0,30.11,NNE,13,4.0,5.0,80,0.00,,,0.00,weatherlink.com 1.10,2013-03-23 14:26:00,
2013-03-23 10:41:00,29.5,24.0,30.11,NNE,24,3.0,5.0,80,0.00,,,0.00,weatherlink.com 1.10,2013-03-23 14:41:00,
2013-03-23 10:56:00,29.6,24.0,30.11,NE,35,4.0,7.0,80,0.00,,,0.00,weatherlink.com 1.10,2013-03-23 14:56:00,
2013-03-23 11:11:00,29.7,25.0,30.11,NNE,32,5.0,6.0,81,0.00,,,0.00,weatherlink.com 1.10,2013-03-23 15:11:00,
2013-03-23 11:26:00,29.9,24.0,30.12,NNE,29,5.0,5.0,79,0.00,,,0.00,weatherlink.com 1.10,2013-03-23 15:26:00,
2013-03-23 11:41:00,29.9,24.0,30.11,NNE,30,3.0,5.0,79,0.00,,,0.00,weatherlink.com 1.10,2013-03-23 15:41:00,
2013-03-23 12:26:00,30.5,25.0,30.12,NNE,13,2.0,6.0,79,0.00,,,0.00,weatherlink.com 1.10,2013-03-23 16:26:00,
2013-03-23 12:56:00,32.4,25.0,30.13,NW,323,2.0,5.0,75,0.00,,,0.00,weatherlink.com 1.10,2013-03-23 16:56:00,
2013-03-23 13:11:00,33.1,25.0,30.13,NW,310,1.0,5.0,73,0.00,,,0.00,weatherlink.com 1.10,2013-03-23 17:11:00,
2013-03-23 13:26:00,33.6,26.0,30.13,NW,306,1.0,6.0,73,0.00,,,0.00,weatherlink.com 1.10,2013-03-23 17:26:00,
2013-03-23 13:41:00,33.9,25.0,30.13,NW,306,4.0,7.0,71,0.00,,,0.00,weatherlink.com 1.10,2013-03-23 17:41:00,
2013-03-23 13:56:00,33.7,25.0,30.12,WNW,282,0.0,6.0,71,0.00,,,0.00,weatherlink.com 1.10,2013-03-23 17:56:00,
2013-03-23 14:11:00,34.5,26.0,30.12,West,278,2.0,6.0,70,0.00,,,0.00,weatherlink.com 1.10,2013-03-23 18:11:00,
2013-03-23 14:26:00,34.7,25.0,30.12,NNW,342,1.0,5.0,68,0.00,,,0.00,weatherlink.com 1.10,2013-03-23 18:26:00,
2013-03-23 14:41:00,35.3,26.0,30.12,SW,219,1.0,4.0,69,0.00,,,0.00,weatherlink.com 1.10,2013-03-23 18:41:00,
2013-03-23 15:26:00,36.7,27.0,30.10,SW,229,4.0,4.0,67,0.00,,,0.00,weatherlink.com 1.10,2013-03-23 19:26:00,
2013-03-23 15:41:00,36.6,27.0,30.09,NW,309,2.0,6.0,67,0.00,,,0.00,weatherlink.com 1.10,2013-03-23 19:41:00,
2013-03-23 15:56:00,37.2,27.0,30.08,NNE,27,0.0,5.0,66,0.00,,,0.00,weatherlink.com 1.10,2013-03-23 19:56:00,
2013-03-23 16:11:00,38.1,26.0,30.09,NW,314,3.0,5.0,63,0.00,,,0.00,weatherlink.com 1.10,2013-03-23 20:11:00,
2013-03-23 16:26:00,37.7,26.0,30.09,WNW,288,3.0,6.0,63,0.00,,,0.00,weatherlink.com 1.10,2013-03-23 20:26:00,
2013-03-23 16:41:00,38.6,26.0,30.09,WSW,253,3.0,9.0,62,0.00,,,0.00,weatherlink.com 1.10,2013-03-23 20:41:00,
2013-03-23 16:56:00,38.8,26.0,30.09,West,277,1.0,6.0,60,0.00,,,0.00,weatherlink.com 1.10,2013-03-23 20:56:00,
2013-03-23 17:12:00,38.6,26.0,30.08,West,276,5.0,7.0,61,0.00,,,0.00,weatherlink.com 1.10,2013-03-23 21:12:00,
2013-03-23 17:41:00,38.5,26.0,30.09,WSW,246,2.0,6.0,62,0.00,,,0.00,weatherlink.com 1.10,2013-03-23 21:41:00,
2013-03-23 17:56:00,38.3,27.0,30.10,WSW,248,1.0,8.0,63,0.00,,,0.00,weatherlink.com 1.10,2013-03-23 21:56:00,
2013-03-23 18:12:00,39.1,27.0,30.10,WNW,287,1.0,8.0,63,0.00,,,0.00,weatherlink.com 1.10,2013-03-23 22:12:00,
2013-03-23 18:26:00,38.4,26.0,30.09,WSW,248,3.0,6.0,62,0.00,,,0.00,weatherlink.com 1.10,2013-03-23 22:26:00,
2013-03-23 18:41:00,37.6,26.0,30.09,West,277,5.0,7.0,63,0.00,,,0.00,weatherlink.com 1.10,2013-03-23 22:41:00,
2013-03-23 18:56:00,36.7,26.0,30.08,West,274,1.0,4.0,65,0.00,,,0.00,weatherlink.com 1.10,2013-03-23 22:56:00,
2013-03-23 19:12:00,36.4,26.0,30.08,West,273,2.0,3.0,66,0.00,,,0.00,weatherlink.com 1.10,2013-03-23 23:12:00,
2013-03-23 19:27:00,35.7,26.0,30.08,West,276,2.0,5.0,67,0.00,,,0.00,weatherlink.com 1.10,2013-03-23 23:27:00,
2013-03-23 19:42:00,34.7,26.0,30.08,WSW,248,2.0,3.0,70,0.00,,,0.00,weatherlink.com 1.10,2013-03-23 23:42:00,
2013-03-23 19:57:00,33.7,26.0,30.08,WSW,253,3.0,3.0,72,0.00,,,0.00,weatherlink.com 1.10,2013-03-23 23:57:00,
2013-03-23 20:12:00,32.9,25.0,30.09,West,259,2.0,3.0,74,0.00,,,0.00,weatherlink.com 1.10,2013-03-24 00:12:00,
2013-03-23 20:27:00,32.4,26.0,30.09,WSW,247,2.0,4.0,76,0.00,,,0.00,weatherlink.com 1.10,2013-03-24 00:27:00,
2013-03-23 20:57:00,32.0,27.0,30.09,West,277,2.0,6.0,80,0.00,,,0.00,weatherlink.com 1.10,2013-03-24 00:57:00,
2013-03-23 21:12:00,31.8,27.0,30.10,West,274,4.0,7.0,81,0.00,,,0.00,weatherlink.com 1.10,2013-03-24 01:12:00,
2013-03-23 21:27:00,31.4,27.0,30.10,West,271,2.0,6.0,82,0.00,,,0.00,weatherlink.com 1.10,2013-03-24 01:27:00,
2013-03-23 21:42:00,31.0,26.0,30.10,West,264,2.0,5.0,82,0.00,,,0.00,weatherlink.com 1.10,2013-03-24 01:42:00,
2013-03-23 21:57:00,30.6,26.0,30.10,West,281,3.0,5.0,83,0.00,,,0.00,weatherlink.com 1.10,2013-03-24 01:57:00,
2013-03-23 22:12:00,30.1,26.0,30.10,WSW,252,0.0,1.0,84,0.00,,,0.00,weatherlink.com 1.10,2013-03-24 02:12:00,
2013-03-23 22:27:00,30.0,26.0,30.10,West,269,1.0,2.0,85,0.00,,,0.00,weatherlink.com 1.10,2013-03-24 02:27:00,
2013-03-23 22:42:00,29.7,26.0,30.09,West,269,0.0,1.0,85,0.00,,,0.00,weatherlink.com 1.10,2013-03-24 02:42:00,
2013-03-23 22:57:00,29.2,26.0,30.09,West,268,0.0,1.0,87,0.00,,,0.00,weatherlink.com 1.10,2013-03-24 02:57:00,
2013-03-23 23:12:00,29.1,26.0,30.08,West,263,0.0,2.0,87,0.00,,,0.00,weatherlink.com 1.10,2013-03-24 03:12:00,
2013-03-23 23:27:00,28.2,25.0,30.08,West,260,1.0,1.0,88,0.00,,,0.00,weatherlink.com 1.10,2013-03-24 03:27:00,
2013-03-23 23:42:00,28.1,25.0,30.08,West,268,1.0,2.0,89,0.00,,,0.00,weatherlink.com 1.10,2013-03-24 03:42:00,
2013-03-23 23:57:00,28.3,26.0,30.08,WSW,257,2.0,3.0,89,0.00,,,0.00,weatherlink.com 1.10,2013-03-24 03:57:00,